Time;durP1;ratioP1;P1;durP2;ratioP2;P2;SDS_P1;SDS_P2;PMS_P1;PMS_P2;Temp;Humidity;BMP_temperature;BMP_pressure;BME280_temperature;BME280_humidity;BME280_pressure;Samples;Min_cycle;Max_cycle;Signal;HPM_P1;HPM_P2
2023/03/16 00:01:25;;;;;;;3.35;2.35;;;;;;;7.14;52.38;101049.84;5088155;28;20509;-79
2023/03/16 00:03:53;;;;;;;4.60;2.30;;;;;;;7.06;55.50;101052.94;5106818;28;20037;-79
2023/03/16 00:06:21;;;;;;;3.47;2.05;;;;;;;6.96;51.98;101051.72;5074838;28;20044;-79
2023/03/16 00:08:57;;;;;;;2.20;1.70;;;;;;;6.99;51.87;101053.09;5081149;28;20408;-79
2023/03/16 00:11:25;;;;;;;2.65;2.03;;;;;;;6.96;53.50;101050.88;5093535;28;20071;-79
2023/03/16 00:13:53;;;;;;;2.17;1.77;;;;;;;6.95;53.18;101050.03;5094643;28;20376;-78
2023/03/16 00:16:21;;;;;;;1.83;1.40;;;;;;;6.94;51.68;101061.19;5094701;28;20044;-79
2023/03/16 00:18:49;;;;;;;3.50;1.98;;;;;;;7.00;54.42;101052.06;5094263;28;20548;-79
2023/03/16 00:21:17;;;;;;;3.85;1.77;;;;;;;6.95;54.48;101062.84;5094383;28;20048;-79
2023/03/16 00:23:45;;;;;;;1.50;1.40;;;;;;;6.86;56.47;101063.19;5094382;28;20502;-79
2023/03/16 00:26:13;;;;;;;2.53;1.67;;;;;;;6.80;53.29;101064.19;5094593;28;20048;-79
2023/03/16 00:28:41;;;;;;;1.27;1.17;;;;;;;6.93;52.52;101063.06;5094535;28;20398;-79
2023/03/16 00:31:13;;;;;;;2.50;1.52;;;;;;;6.98;54.24;101065.88;5127447;27;20051;-79
2023/03/16 00:33:41;;;;;;;1.42;1.27;;;;;;;6.89;54.04;101067.34;5094965;28;20059;-79
2023/03/16 00:36:10;;;;;;;2.13;1.17;;;;;;;6.79;54.36;101067.97;5126111;27;20051;-79
2023/03/16 00:38:44;;;;;;;3.25;1.27;;;;;;;6.88;52.37;101071.13;5093742;28;20402;-79
2023/03/16 00:41:13;;;;;;;4.28;1.33;;;;;;;6.97;50.76;101072.41;5092550;28;20522;-79
2023/03/16 00:43:44;;;;;;;1.83;1.30;;;;;;;6.89;52.67;101078.22;5093453;28;20055;-79
2023/03/16 00:46:17;;;;;;;0.98;0.90;;;;;;;6.83;52.98;101071.88;5093485;28;20048;-79
2023/03/16 00:48:46;;;;;;;1.08;0.88;;;;;;;6.75;55.17;101064.06;5093705;28;20040;-79
2023/03/16 00:51:19;;;;;;;1.45;1.08;;;;;;;6.72;54.35;101073.56;5094575;28;20055;-79
2023/03/16 00:53:48;;;;;;;3.13;1.50;;;;;;;6.66;54.38;101069.09;5093387;28;20047;-79
2023/03/16 00:56:16;;;;;;;2.40;1.50;;;;;;;6.65;56.09;101066.63;5094353;28;20056;-79
2023/03/16 00:58:44;;;;;;;2.35;1.80;;;;;;;6.69;56.26;101073.19;5091774;28;20070;-79
2023/03/16 01:01:15;;;;;;;3.15;2.10;;;;;;;6.74;58.28;101075.22;5093015;28;20047;-79
2023/03/16 01:03:44;;;;;;;3.42;1.95;;;;;;;6.62;58.85;101069.81;5094242;28;20482;-79
2023/03/16 01:06:15;;;;;;;3.17;2.08;;;;;;;6.64;60.56;101063.06;5094476;28;20052;-79
2023/03/16 01:08:44;;;;;;;4.85;2.33;;;;;;;6.58;62.73;101064.03;5093907;28;20051;-79
2023/03/16 01:11:17;;;;;;;2.58;2.38;;;;;;;6.43;63.33;101065.38;5093668;28;20508;-79
2023/03/16 01:13:46;;;;;;;2.90;2.38;;;;;;;6.50;64.44;101061.69;5092078;28;20052;-79
2023/03/16 01:16:17;;;;;;;5.03;2.80;;;;;;;6.52;66.24;101059.56;5093278;28;20036;-79
2023/03/16 01:18:48;;;;;;;5.72;3.08;;;;;;;6.59;65.76;101052.06;5092222;28;20036;-79
2023/03/16 01:21:17;;;;;;;3.97;2.80;;;;;;;6.62;66.34;101051.59;5091895;28;20056;-79
2023/03/16 01:23:45;;;;;;;5.43;3.20;;;;;;;6.61;67.93;101047.25;5092962;28;20062;-79
2023/03/16 01:26:15;;;;;;;5.50;2.80;;;;;;;6.52;67.66;101041.34;5092784;28;20044;-79
2023/03/16 01:28:45;;;;;;;3.58;2.50;;;;;;;6.45;66.64;101052.34;5091475;28;20062;-79
2023/03/16 01:31:14;;;;;;;4.05;3.00;;;;;;;6.38;65.35;101048.94;5091111;28;20121;-79
2023/03/16 01:33:42;;;;;;;3.70;2.80;;;;;;;6.43;65.25;101046.34;5093133;28;20072;-79
2023/03/16 01:36:17;;;;;;;3.65;2.55;;;;;;;6.49;63.92;101052.69;5091734;28;20044;-79
2023/03/16 01:38:59;;;;;;;3.00;2.53;;;;;;;6.47;64.17;101049.41;5091477;28;20490;-79
2023/03/16 01:41:31;;;;;;;4.10;2.50;;;;;;;6.50;64.80;101048.09;5091200;28;20059;-79
2023/03/16 01:43:59;;;;;;;4.05;2.85;;;;;;;6.42;63.67;101041.13;5093603;28;20059;-79
2023/03/16 01:46:29;;;;;;;3.38;2.22;;;;;;;6.38;62.36;101040.78;5091810;28;20040;-79
2023/03/16 01:49:04;;;;;;;4.10;2.63;;;;;;;6.41;63.39;101034.06;5091317;28;20044;-79
2023/03/16 01:51:33;;;;;;;3.67;2.40;;;;;;;6.35;65.63;101027.66;5091629;28;20517;-79
2023/03/16 01:54:13;;;;;;;3.92;2.00;;;;;;;6.32;62.64;101033.59;5092437;28;20394;-79
2023/03/16 01:56:49;;;;;;;2.60;2.28;;;;;;;6.22;65.05;101028.78;5092736;28;20047;-79
2023/03/16 01:59:21;;;;;;;2.28;1.88;;;;;;;6.22;63.37;101033.38;5092644;28;20051;-79
2023/03/16 02:01:50;;;;;;;3.28;2.20;;;;;;;6.16;64.67;101037.91;5090843;28;20059;-79
2023/03/16 02:04:30;;;;;;;2.88;2.25;;;;;;;6.11;62.45;101029.63;5090801;28;20058;-79
2023/03/16 02:07:00;;;;;;;2.22;1.95;;;;;;;6.13;61.96;101032.91;5090942;28;20067;-79
2023/03/16 02:09:32;;;;;;;3.53;1.90;;;;;;;6.13;62.77;101039.19;5090534;28;20051;-79
2023/03/16 02:12:00;;;;;;;2.25;1.90;;;;;;;6.08;64.74;101036.38;5092522;28;20372;-79
2023/03/16 02:14:30;;;;;;;2.38;2.15;;;;;;;5.99;64.86;101032.31;5090927;28;20051;-79
2023/03/16 02:16:58;;;;;;;3.67;2.20;;;;;;;6.05;63.86;101043.09;5091011;28;20044;-79
2023/03/16 02:19:54;;;;;;;2.78;2.20;;;;;;;6.04;64.32;101029.75;5090900;28;20423;-79
2023/03/16 02:22:23;;;;;;;2.53;1.83;;;;;;;5.95;66.82;101042.03;5092357;28;20055;-79
2023/03/16 02:24:52;;;;;;;2.28;1.80;;;;;;;5.94;67.58;101030.31;5092707;28;20047;-79
2023/03/16 02:27:36;;;;;;;3.13;2.20;;;;;;;5.86;68.10;101033.41;5092077;28;20052;-79
2023/03/16 02:30:13;;;;;;;2.28;1.60;;;;;;;5.81;66.50;101038.72;5091210;28;20060;-79
2023/03/16 02:32:54;;;;;;;2.17;1.98;;;;;;;5.78;65.63;101026.44;5091300;28;20051;-79
2023/03/16 02:35:22;;;;;;;3.00;2.00;;;;;;;5.71;66.78;101031.16;5091246;28;20054;-79
2023/03/16 02:37:51;;;;;;;1.95;1.77;;;;;;;5.63;69.18;101041.28;5090815;28;20397;-79
2023/03/16 02:40:23;;;;;;;2.03;1.60;;;;;;;5.56;65.79;101040.59;5092084;28;20043;-79
2023/03/16 02:42:55;;;;;;;2.08;1.75;;;;;;;5.62;65.54;101045.06;5090933;28;20060;-79
2023/03/16 02:45:27;;;;;;;3.88;2.03;;;;;;;5.69;64.59;101039.53;5090346;28;20048;-79
2023/03/16 02:48:02;;;;;;;3.15;1.70;;;;;;;5.78;62.52;101048.97;5092567;28;20052;-79
2023/03/16 02:50:30;;;;;;;3.22;1.75;;;;;;;5.79;63.86;101049.81;5091161;28;20401;-79
2023/03/16 02:52:58;;;;;;;1.63;1.40;;;;;;;5.84;60.22;101057.25;5092384;28;20387;-79
2023/03/16 02:55:26;;;;;;;2.80;1.92;;;;;;;5.84;61.07;101047.22;5090450;28;20048;-79
2023/03/16 02:57:54;;;;;;;2.38;1.92;;;;;;;5.85;61.25;101048.03;5090197;28;20052;-79
2023/03/16 03:00:22;;;;;;;1.90;1.73;;;;;;;5.79;62.26;101055.25;5091887;28;20044;-79
2023/03/16 03:02:51;;;;;;;1.85;1.35;;;;;;;5.70;62.78;101051.22;5090666;28;20052;-79
2023/03/16 03:05:20;;;;;;;3.17;1.38;;;;;;;5.75;60.65;101051.34;5090695;28;20047;-79
2023/03/16 03:07:48;;;;;;;5.70;1.73;;;;;;;5.70;62.96;101048.50;5070496;28;20487;-79
2023/03/16 03:10:16;;;;;;;1.50;1.40;;;;;;;5.67;63.21;101051.69;5081372;28;20040;-79
2023/03/16 03:12:48;;;;;;;5.25;1.77;;;;;;;5.63;63.22;101062.22;5089875;28;20407;-79
2023/03/16 03:15:17;;;;;;;2.65;1.75;;;;;;;5.70;62.54;101057.47;5124761;28;20478;-79
2023/03/16 03:18:00;;;;;;;;;;;;;;;5.59;64.47;101056.41;5093281;28;20044;-79
2023/03/16 03:20:30;;;;;;;2.42;1.40;;;;;;;5.60;63.43;101049.09;5094488;28;19927;-79
2023/03/16 03:22:58;;;;;;;1.30;1.00;;;;;;;5.58;63.78;101065.59;5095434;28;20052;-79
2023/03/16 03:25:25;;;;;;;1.67;1.30;;;;;;;5.61;62.56;101058.88;5095138;28;20048;-79
2023/03/16 03:27:54;;;;;;;3.50;1.23;;;;;;;5.62;59.42;101061.38;5093971;28;20055;-79
2023/03/16 03:30:24;;;;;;;2.55;1.52;;;;;;;5.65;64.62;101055.47;5095106;28;20055;-79
2023/03/16 03:32:53;;;;;;;1.35;1.25;;;;;;;5.59;61.87;101061.84;5093908;28;20064;-79
2023/03/16 03:35:21;;;;;;;4.10;1.55;;;;;;;5.55;61.64;101066.09;5095246;28;20367;-79
2023/03/16 03:37:50;;;;;;;1.35;1.13;;;;;;;5.52;62.29;101063.81;5093047;28;20044;-79
2023/03/16 03:40:19;;;;;;;3.55;1.48;;;;;;;5.45;62.87;101074.81;5092922;28;20418;-79
2023/03/16 03:42:54;;;;;;;2.67;1.50;;;;;;;5.45;62.03;101077.53;5093668;28;20435;-79
2023/03/16 03:45:23;;;;;;;1.70;1.08;;;;;;;5.43;64.50;101078.81;5126984;27;20075;-79
2023/03/16 03:47:53;;;;;;;1.30;1.08;;;;;;;5.47;63.37;101080.00;5093313;28;20044;-79
2023/03/16 03:50:22;;;;;;;2.10;1.38;;;;;;;5.44;63.30;101081.31;5127598;27;20047;-79
2023/03/16 03:53:20;;;;;;;1.00;0.85;;;;;;;5.42;63.22;101091.56;5085753;28;20052;-79
2023/03/16 03:56:08;;;;;;;1.33;1.23;;;;;;;5.41;62.37;101094.50;5083325;28;20040;-79
2023/03/16 03:58:37;;;;;;;1.55;1.10;;;;;;;5.41;63.12;101092.63;5095234;28;20051;-79
2023/03/16 04:01:05;;;;;;;1.10;1.02;;;;;;;5.43;62.49;101100.53;5094728;28;20064;-79
2023/03/16 04:03:33;;;;;;;3.30;1.50;;;;;;;5.50;60.95;101102.09;5094012;28;20493;-79
2023/03/16 04:06:01;;;;;;;1.15;1.05;;;;;;;5.53;61.76;101099.97;5095019;28;20048;-79
2023/03/16 04:08:31;;;;;;;1.05;0.90;;;;;;;5.60;58.31;101106.09;5093492;28;20071;-79
2023/03/16 04:10:59;;;;;;;0.98;0.88;;;;;;;5.60;60.18;101106.09;5095020;28;20390;-79
2023/03/16 04:13:27;;;;;;;1.25;1.02;;;;;;;5.58;59.70;101109.03;5093683;28;20044;-79
2023/03/16 04:16:03;;;;;;;2.03;1.05;;;;;;;5.52;60.53;101118.13;5094816;28;20056;-79
2023/03/16 04:18:38;;;;;;;1.23;0.90;;;;;;;5.53;61.44;101122.53;5092994;28;20048;-79
2023/03/16 04:21:14;;;;;;;1.80;1.20;;;;;;;5.50;61.87;101117.53;5092697;28;20063;-79
2023/03/16 04:23:44;;;;;;;1.52;0.80;;;;;;;5.54;64.01;101123.34;5092916;28;20491;-79
2023/03/16 04:26:12;;;;;;;0.82;0.82;;;;;;;5.50;61.01;101125.69;5094413;28;20059;-79
2023/03/16 04:28:43;;;;;;;0.95;0.85;;;;;;;5.54;60.99;101129.59;5093575;28;20044;-79
2023/03/16 04:31:14;;;;;;;1.63;1.10;;;;;;;5.53;60.35;101130.66;5094837;28;20052;-79
2023/03/16 04:33:45;;;;;;;0.98;0.75;;;;;;;5.50;61.20;101128.41;5092795;28;20082;-79
2023/03/16 04:36:13;;;;;;;1.25;1.15;;;;;;;5.49;61.64;101126.75;5094789;28;20044;-79
2023/03/16 04:38:42;;;;;;;0.98;0.95;;;;;;;5.45;61.90;101130.97;5092366;28;20044;-79
2023/03/16 04:41:11;;;;;;;0.88;0.75;;;;;;;5.36;62.62;101139.47;5092705;28;20063;-79
2023/03/16 04:43:48;;;;;;;0.70;0.70;;;;;;;5.40;61.56;101137.09;5093040;28;20028;-79
2023/03/16 04:46:21;;;;;;;1.10;1.00;;;;;;;5.37;61.33;101143.00;5093111;28;20044;-79
2023/03/16 04:48:49;;;;;;;1.08;0.85;;;;;;;5.36;60.99;101139.47;5093029;28;20391;-79
2023/03/16 04:51:17;;;;;;;0.63;0.55;;;;;;;5.37;61.31;101140.28;5092863;28;20047;-79
2023/03/16 04:54:03;;;;;;;1.10;0.98;;;;;;;5.34;62.50;101130.69;5092535;28;20051;-79
2023/03/16 04:56:35;;;;;;;0.88;0.55;;;;;;;5.34;62.40;101146.19;5092837;28;20055;-79
2023/03/16 04:59:08;;;;;;;1.33;0.90;;;;;;;5.30;63.48;101145.81;5093046;28;20036;-79
2023/03/16 05:01:48;;;;;;;1.85;1.08;;;;;;;5.34;62.48;101148.91;5092297;28;20056;-79
2023/03/16 05:04:17;;;;;;;2.45;1.20;;;;;;;5.41;62.35;101151.50;5092352;28;20067;-79
2023/03/16 05:06:47;;;;;;;1.40;1.27;;;;;;;5.39;66.13;101151.75;5092378;28;20051;-79
2023/03/16 05:09:19;;;;;;;1.63;1.30;;;;;;;5.38;64.49;101153.63;5092441;28;20403;-79
2023/03/16 05:11:49;;;;;;;2.67;1.52;;;;;;;5.32;67.04;101164.59;5091706;28;20044;-79
2023/03/16 05:14:17;;;;;;;5.22;1.20;;;;;;;5.35;67.01;101162.25;5093727;28;20051;-79
2023/03/16 05:17:07;;;;;;;1.48;1.35;;;;;;;5.37;67.76;101168.25;5091744;28;20055;-78
2023/03/16 05:19:35;;;;;;;1.88;1.45;;;;;;;5.29;69.34;101165.88;5092020;28;20111;-79
2023/03/16 05:22:03;;;;;;;2.90;2.03;;;;;;;5.28;68.91;101171.53;5071291;28;20048;-78
2023/03/16 05:24:31;;;;;;;3.85;2.42;;;;;;;5.25;68.70;101170.09;5083487;28;20394;-79
2023/03/16 05:27:03;;;;;;;1.48;1.38;;;;;;;5.70;76.16;101170.69;5091763;28;20047;-85
2023/03/16 05:29:32;;;;;;;7.15;1.98;;;;;;;5.64;66.00;101173.28;5092131;28;20048;-82
2023/03/16 05:32:00;;;;;;;2.78;2.45;;;;;;;5.60;66.29;101182.97;5092378;28;20052;-83
2023/03/16 05:34:30;;;;;;;3.30;1.98;;;;;;;5.49;67.67;101178.34;5090852;28;20607;-82
2023/03/16 05:36:58;;;;;;;3.97;2.25;;;;;;;5.60;66.79;101188.41;5091751;28;20039;-82
2023/03/16 05:39:27;;;;;;;4.30;2.10;;;;;;;5.70;66.95;101187.84;5090608;28;20048;-82
2023/03/16 05:41:56;;;;;;;3.80;2.58;;;;;;;5.70;66.66;101187.00;5091305;28;20071;-82
2023/03/16 05:44:45;;;;;;;4.68;2.38;;;;;;;5.74;67.98;101196.34;5085355;28;20048;-82
2023/03/16 05:47:35;;;;;;;7.63;2.65;;;;;;;5.65;70.22;101199.41;5092090;28;20063;-82
2023/03/16 05:50:10;;;;;;;2.22;2.03;;;;;;;5.67;68.43;101195.63;5091129;28;20048;-82
2023/03/16 05:52:43;;;;;;;4.25;2.35;;;;;;;5.69;67.39;101201.63;5092575;28;20044;-82
2023/03/16 05:55:18;;;;;;;2.10;1.77;;;;;;;5.72;67.46;101204.72;5090688;28;20052;-82
2023/03/16 05:57:51;;;;;;;4.05;2.42;;;;;;;5.83;69.45;101205.84;5091552;28;20044;-82
2023/03/16 06:00:20;;;;;;;4.22;1.75;;;;;;;6.04;64.78;101211.78;5091540;28;20063;-82
2023/03/16 06:02:58;;;;;;;3.55;2.08;;;;;;;6.29;65.73;101205.31;5085568;28;20044;-85
2023/03/16 06:05:30;;;;;;;3.80;1.55;;;;;;;6.43;63.88;101206.75;5089734;28;20494;-81
2023/03/16 06:07:58;;;;;;;3.35;2.17;;;;;;;6.69;63.62;101215.47;5091495;28;20052;-84
2023/03/16 06:10:27;;;;;;;3.65;1.80;;;;;;;6.74;63.33;101225.63;5089774;28;20043;-85
2023/03/16 06:12:55;;;;;;;3.13;1.38;;;;;;;6.91;61.31;101222.19;5087207;28;20482;-83
2023/03/16 06:15:28;;;;;;;3.83;2.47;;;;;;;7.13;60.62;101223.22;5081621;28;20048;-83
2023/03/16 06:17:59;;;;;;;2.47;1.50;;;;;;;7.53;58.48;101229.69;5087342;28;20055;-83
2023/03/16 06:20:27;;;;;;;3.00;1.65;;;;;;;7.77;55.31;101235.03;5086030;28;20059;-83
2023/03/16 06:22:56;;;;;;;2.15;1.63;;;;;;;7.87;56.27;101230.84;5084014;28;20037;-83
2023/03/16 06:25:24;;;;;;;3.05;1.90;;;;;;;8.12;54.24;101235.91;5070464;28;20044;-84
2023/03/16 06:27:52;;;;;;;1.88;1.77;;;;;;;8.32;52.37;101246.31;5069423;28;20052;-84
2023/03/16 06:30:20;;;;;;;4.85;2.15;;;;;;;8.67;52.45;101240.88;5070136;28;20045;-84
2023/03/16 06:32:48;;;;;;;3.97;1.88;;;;;;;8.79;51.66;101260.69;5069907;28;20056;-83
2023/03/16 06:35:16;;;;;;;2.85;1.88;;;;;;;8.74;51.13;101246.97;5071328;28;20057;-84
2023/03/16 06:37:53;;;;;;;2.95;1.90;;;;;;;8.98;50.14;101268.59;5104098;28;20056;-83
2023/03/16 06:40:40;;;;;;;4.95;2.03;;;;;;;9.16;52.37;101264.75;5071002;28;20242;-83
2023/03/16 06:43:08;;;;;;;6.28;2.38;;;;;;;9.11;50.11;101270.13;5080234;28;20506;-86
2023/03/16 06:45:36;;;;;;;5.88;1.80;;;;;;;9.16;51.07;101280.28;5090301;28;20052;-90
2023/03/16 06:48:05;;;;;;;3.42;1.65;;;;;;;9.30;49.50;101281.56;5091840;28;20051;-91
2023/03/16 06:50:33;;;;;;;2.10;1.90;;;;;;;9.61;49.73;101286.56;5091914;28;20066;-91
2023/03/16 06:53:01;;;;;;;4.10;1.80;;;;;;;9.87;48.13;101295.06;5092904;28;20517;-91
2023/03/16 06:55:31;;;;;;;5.72;1.88;;;;;;;10.28;46.77;101300.94;5094660;28;20078;-91
2023/03/16 06:58:00;;;;;;;2.85;1.92;;;;;;;10.16;45.18;101298.34;5129760;27;20049;-91
2023/03/16 07:00:30;;;;;;;1.70;1.23;;;;;;;10.19;44.89;101308.78;5094279;28;20498;-92
2023/03/16 07:02:59;;;;;;;4.53;1.73;;;;;;;10.72;46.85;101310.84;5095130;28;20059;-92
2023/03/16 07:05:28;;;;;;;2.42;1.63;;;;;;;11.07;44.40;101321.47;5094413;28;20498;-92
2023/03/16 07:07:58;;;;;;;2.08;1.55;;;;;;;11.06;45.13;101331.63;5095756;28;20055;-92
2023/03/16 07:10:26;;;;;;;1.70;1.48;;;;;;;11.21;45.26;101324.56;5096416;28;20055;-92
2023/03/16 07:12:54;;;;;;;1.98;1.15;;;;;;;11.51;42.48;101321.16;5094301;28;20126;-92
2023/03/16 07:15:25;;;;;;;3.97;1.63;;;;;;;11.08;44.51;101328.59;5094496;28;20048;-92
2023/03/16 07:17:55;;;;;;;4.15;1.35;;;;;;;11.24;43.98;101324.88;5094538;28;20048;-92
2023/03/16 07:20:25;;;;;;;1.17;0.98;;;;;;;11.68;44.55;101331.06;5095740;28;20055;-92
2023/03/16 07:22:54;;;;;;;4.13;1.38;;;;;;;11.69;44.40;101338.22;5094551;28;20048;-92
2023/03/16 07:25:22;;;;;;;1.65;1.20;;;;;;;11.42;44.04;101339.22;5094491;28;20048;-92
2023/03/16 07:27:53;;;;;;;3.20;1.80;;;;;;;11.49;46.37;101339.78;5098235;28;20056;-94
2023/03/16 07:30:27;;;;;;;;;;;;;;;12.05;44.61;101345.75;5095511;28;20048;-93
2023/03/16 07:32:56;;;;;;;2.53;1.33;;;;;;;11.90;45.85;101343.75;5078097;28;19924;-92
2023/03/16 07:35:26;;;;;;;3.03;1.50;;;;;;;11.86;46.17;101346.22;5094621;28;20048;-93
2023/03/16 07:37:55;;;;;;;1.60;1.17;;;;;;;11.95;45.59;101352.00;5094930;28;20040;-92
2023/03/16 07:40:24;;;;;;;1.63;1.20;;;;;;;12.10;46.10;101354.00;5094029;28;20059;-93
2023/03/16 07:42:56;;;;;;;1.67;1.58;;;;;;;12.23;45.52;101358.16;5094335;28;20043;-93
2023/03/16 07:45:33;;;;;;;1.15;0.95;;;;;;;12.56;44.33;101363.41;5094658;28;20044;-94
2023/03/16 07:48:02;;;;;;;2.58;1.33;;;;;;;12.11;44.86;101354.84;5094418;28;20048;-94
2023/03/16 07:50:47;;;;;;;1.20;1.10;;;;;;;12.22;44.27;101356.50;5099086;28;20426;-93
2023/03/16 07:53:15;;;;;;;5.93;1.05;;;;;;;11.86;45.48;101365.44;5108339;28;20066;-93
2023/03/16 07:55:46;;;;;;;2.33;1.00;;;;;;;11.98;44.11;101367.94;5100451;28;20058;-93
2023/03/16 07:58:14;;;;;;;2.42;0.95;;;;;;;11.94;44.71;101372.31;5096319;28;20048;-92
2023/03/16 08:00:43;;;;;;;2.03;1.50;;;;;;;12.33;46.75;101369.13;5093936;28;20490;-93
2023/03/16 08:03:10;;;;;;;3.13;1.73;;;;;;;12.41;44.87;101369.69;5094811;28;20044;-94
2023/03/16 08:05:38;;;;;;;1.77;0.95;;;;;;;12.29;43.89;101378.19;5094843;28;20055;-95
2023/03/16 08:08:11;;;;;;;2.80;1.25;;;;;;;12.25;43.13;101382.56;5094681;28;20414;-94
2023/03/16 08:10:40;;;;;;;2.42;1.40;;;;;;;12.19;41.50;101387.22;5106814;28;20048;-92
2023/03/16 08:13:15;;;;;;;1.50;1.40;;;;;;;12.08;42.34;101376.22;5110059;28;20040;-93
2023/03/16 08:15:54;;;;;;;3.55;1.83;;;;;;;13.20;40.57;101374.03;5097420;28;20055;-94
2023/03/16 08:18:31;;;;;;;1.98;1.45;;;;;;;13.46;38.15;101382.22;5093812;28;20044;-93
2023/03/16 08:20:59;;;;;;;3.80;1.70;;;;;;;13.53;40.41;101386.34;5095905;28;20394;-95
2023/03/16 08:23:28;;;;;;;2.80;1.02;;;;;;;13.49;39.83;101388.00;5095649;28;20063;-94
2023/03/16 08:25:56;;;;;;;4.75;1.20;;;;;;;13.24;39.64;101388.88;5108473;28;20040;-94
2023/03/16 08:28:26;;;;;;;1.23;1.05;;;;;;;12.63;40.52;101391.41;5100907;28;20394;-95
2023/03/16 08:30:57;;;;;;;1.83;1.35;;;;;;;12.41;41.44;101395.22;5095356;28;20051;-94
2023/03/16 08:33:35;;;;;;;3.13;1.23;;;;;;;12.31;40.60;101398.75;5092925;28;20048;-93
2023/03/16 08:36:08;;;;;;;2.22;1.35;;;;;;;11.91;42.05;101401.09;5094042;28;20044;-93
2023/03/16 08:38:38;;;;;;;1.70;1.30;;;;;;;12.03;42.49;101391.81;5094672;28;20047;-94
2023/03/16 08:41:11;;;;;;;2.45;1.73;;;;;;;11.83;43.94;101405.19;5094691;28;20047;-93
2023/03/16 08:43:41;;;;;;;2.95;1.98;;;;;;;12.44;42.50;101399.34;5093813;28;20398;-95
2023/03/16 08:46:10;;;;;;;1.30;1.20;;;;;;;12.99;41.98;101399.63;5094780;28;20474;-95
2023/03/16 08:48:47;;;;;;;1.80;1.35;;;;;;;13.11;41.32;101407.56;5093149;28;20044;-95
2023/03/16 08:51:18;;;;;;;1.80;1.35;;;;;;;12.69;39.96;101405.94;5077095;28;20064;-95
2023/03/16 08:53:46;;;;;;;1.30;1.20;;;;;;;12.28;40.45;101412.22;5094539;28;20394;-94
2023/03/16 08:56:14;;;;;;;3.33;1.17;;;;;;;12.40;39.81;101407.28;5095089;28;20055;-95
2023/03/16 08:58:45;;;;;;;1.80;1.27;;;;;;;12.61;38.21;101407.34;5097673;28;20055;-95
2023/03/16 09:01:16;;;;;;;2.15;1.05;;;;;;;12.62;37.63;101426.25;5097242;28;20055;-95
2023/03/16 09:03:47;;;;;;;1.48;0.90;;;;;;;12.70;38.77;101416.66;5095096;28;20513;-95
2023/03/16 09:06:16;;;;;;;1.77;0.90;;;;;;;12.97;38.06;101425.72;5096186;28;20364;-94
2023/03/16 09:08:44;;;;;;;1.40;0.98;;;;;;;12.89;34.54;101433.44;5095263;28;20051;-94
2023/03/16 09:11:15;;;;;;;1.85;1.10;;;;;;;12.85;34.14;101429.56;5094462;28;20051;-95
2023/03/16 09:13:44;;;;;;;2.00;0.90;;;;;;;13.53;34.79;101429.50;5096569;28;20051;-94
2023/03/16 09:16:14;;;;;;;1.23;1.10;;;;;;;13.36;36.47;101438.06;5098569;28;20052;-94
2023/03/16 09:18:42;;;;;;;1.38;1.13;;;;;;;13.67;36.25;101433.34;5095995;28;20036;-95
2023/03/16 09:21:12;;;;;;;1.63;0.90;;;;;;;13.44;34.80;101434.72;5096777;28;20059;-94
2023/03/16 09:23:41;;;;;;;1.27;0.98;;;;;;;13.35;31.02;101433.66;5095899;28;20051;-95
2023/03/16 09:26:11;;;;;;;1.58;0.82;;;;;;;13.40;32.34;101439.16;5094412;28;20052;-94
2023/03/16 09:28:41;;;;;;;1.08;0.98;;;;;;;12.67;35.22;101443.84;5094291;28;20044;-95
2023/03/16 09:31:16;;;;;;;1.30;1.20;;;;;;;13.43;33.49;101433.91;5095534;28;20056;-93
2023/03/16 09:33:45;;;;;;;2.20;0.90;;;;;;;13.79;35.89;101441.25;5098452;28;20055;-94
2023/03/16 09:36:14;;;;;;;0.82;0.82;;;;;;;13.46;30.85;101442.69;5095866;28;20064;-94
2023/03/16 09:38:43;;;;;;;1.33;0.68;;;;;;;13.96;34.17;101451.09;5096060;28;20055;-96
2023/03/16 09:41:40;;;;;;;4.15;1.20;;;;;;;14.13;32.94;101452.69;5096725;28;20526;-95
2023/03/16 09:44:38;;;;;;;1.63;1.00;;;;;;;13.84;34.27;101451.44;5096506;28;20056;-94
2023/03/16 09:47:10;;;;;;;2.53;1.08;;;;;;;13.86;32.43;101457.47;5093300;28;20403;-94
2023/03/16 09:49:48;;;;;;;0.90;0.90;;;;;;;14.13;33.24;101461.75;5100278;28;20036;-94
2023/03/16 09:52:43;;;;;;;1.02;1.00;;;;;;;14.07;32.96;101457.38;5108826;28;20040;-94
2023/03/16 09:55:29;;;;;;;1.88;1.38;;;;;;;14.36;33.91;101448.41;5107766;28;20060;-94
2023/03/16 09:57:59;;;;;;;1.05;1.05;;;;;;;14.93;33.89;101456.34;5093344;28;20395;-95
2023/03/16 10:00:36;;;;;;;2.95;1.10;;;;;;;14.56;34.11;101454.94;5093982;28;20123;-94
2023/03/16 10:03:46;;;;;;;1.23;1.10;;;;;;;14.44;34.12;101456.09;5096703;28;20051;-94
2023/03/16 10:06:15;;;;;;;2.63;1.33;;;;;;;14.64;33.36;101455.16;5089926;28;20051;-94
2023/03/16 10:08:50;;;;;;;1.48;1.13;;;;;;;14.24;32.59;101462.53;5094918;28;20047;-93
2023/03/16 10:11:25;;;;;;;3.65;1.30;;;;;;;14.01;33.51;101458.50;5095172;28;20044;-93
2023/03/16 10:13:53;;;;;;;1.13;1.02;;;;;;;14.05;35.36;101459.59;5093035;28;20043;-94
2023/03/16 10:16:37;;;;;;;2.05;1.77;;;;;;;14.16;34.52;101461.19;5099364;28;20040;-92
2023/03/16 10:19:32;;;;;;;2.05;1.67;;;;;;;14.17;34.29;101465.59;5095888;28;20055;-93
2023/03/16 10:22:08;;;;;;;3.47;1.90;;;;;;;14.14;32.63;101468.94;5094799;28;20043;-94
2023/03/16 10:25:14;;;;;;;1.42;1.33;;;;;;;14.14;33.32;101468.94;5093621;28;20048;-94
2023/03/16 10:27:44;;;;;;;2.63;1.80;;;;;;;14.73;33.76;101463.63;5092874;28;20040;-94
2023/03/16 10:30:27;;;;;;;2.53;1.83;;;;;;;14.73;36.41;101460.03;5093009;28;20398;-92
2023/03/16 10:33:01;;;;;;;2.45;1.65;;;;;;;14.60;34.99;101456.00;5092757;28;20040;-95
2023/03/16 10:35:44;;;;;;;1.75;1.35;;;;;;;14.54;34.25;101457.13;5093090;28;20047;-92
2023/03/16 10:38:45;;;;;;;2.40;1.65;;;;;;;14.49;34.53;101464.34;5095489;28;20050;-93
2023/03/16 10:41:20;;;;;;;1.70;1.50;;;;;;;14.69;34.69;101458.97;5098848;28;20056;-94
2023/03/16 10:44:05;;;;;;;3.58;1.83;;;;;;;14.26;33.14;101456.75;5094977;28;20048;-93
2023/03/16 10:46:47;;;;;;;2.88;1.70;;;;;;;14.22;33.68;101457.31;5092825;28;20064;-94
2023/03/16 10:49:35;;;;;;;2.88;1.70;;;;;;;14.03;34.16;101461.81;5092959;28;20047;-94
2023/03/16 10:52:12;;;;;;;3.88;1.88;;;;;;;14.56;34.93;101468.72;5091978;28;20044;-94
2023/03/16 10:54:48;;;;;;;2.95;2.03;;;;;;;14.61;34.53;101461.22;5092592;28;20048;-94
2023/03/16 10:57:19;;;;;;;4.18;1.67;;;;;;;14.87;34.29;101463.81;5092185;28;20486;-94
2023/03/16 10:59:49;;;;;;;2.92;1.55;;;;;;;14.48;34.46;101454.41;5090851;28;20059;-95
2023/03/16 11:02:31;;;;;;;3.03;1.90;;;;;;;14.99;35.05;101460.69;5092259;28;20051;-94
2023/03/16 11:05:31;;;;;;;1.63;1.52;;;;;;;15.19;35.66;101461.63;5092048;28;20391;-94
2023/03/16 11:08:20;;;;;;;2.88;1.60;;;;;;;15.48;33.40;101455.28;5098591;28;20054;-94
2023/03/16 11:10:57;;;;;;;1.55;1.45;;;;;;;14.85;31.96;101449.50;5095974;28;20048;-93
2023/03/16 11:13:37;;;;;;;3.13;1.67;;;;;;;15.15;34.25;101452.31;5092541;28;20056;-94
2023/03/16 11:16:30;;;;;;;3.13;1.75;;;;;;;14.38;35.88;101446.22;5092486;28;20075;-96
2023/03/16 11:19:04;;;;;;;2.25;1.42;;;;;;;14.60;34.06;101444.97;5092064;28;20524;-93
2023/03/16 11:21:47;;;;;;;;;;;;;;;15.20;35.69;101443.97;5093155;28;20052;-94
2023/03/16 12:58:26;;;;;;;1.45;1.35;;;;;;;16.54;32.61;101363.38;5081939;28;20052;-92
2023/03/16 13:32:12;;;;;;;1.70;1.17;;;;;;;17.30;32.54;101333.84;4991319;28;20045;-92
2023/03/16 18:45:40;;;;;;;4.28;3.10;;;;;;;11.99;44.45;101462.03;5084614;28;20055;-94
2023/03/16 18:48:18;;;;;;;5.45;2.67;;;;;;;11.65;45.04;101457.75;5089812;28;20044;-95
2023/03/16 18:50:46;;;;;;;3.20;2.55;;;;;;;11.31;45.82;101461.66;5085087;28;20048;-94
2023/03/16 18:53:16;;;;;;;9.27;3.60;;;;;;;11.30;45.13;101457.25;5097732;28;20059;-94
2023/03/16 18:55:44;;;;;;;8.38;3.45;;;;;;;11.14;45.89;101472.75;5097276;28;20489;-94
2023/03/16 18:58:17;;;;;;;3.58;2.38;;;;;;;10.93;47.02;101463.53;5085128;28;20476;-92
2023/03/16 19:00:52;;;;;;;7.43;4.40;;;;;;;10.91;47.81;101469.28;5097574;28;20513;-94
2023/03/16 19:03:25;;;;;;;5.65;3.45;;;;;;;10.85;48.58;101473.06;5098520;28;20059;-95
2023/03/16 19:05:55;;;;;;;4.45;3.42;;;;;;;10.68;50.99;101476.72;5097441;28;20067;-94
2023/03/16 19:08:26;;;;;;;5.13;3.42;;;;;;;10.47;50.40;101478.44;5097480;28;20056;-95
2023/03/16 19:11:00;;;;;;;5.57;3.45;;;;;;;10.27;50.69;101473.53;5098984;28;20055;-95
2023/03/16 19:13:29;;;;;;;6.00;4.03;;;;;;;10.26;51.01;101486.38;5108325;28;20066;-93